Time;durP1;ratioP1;P1;durP2;ratioP2;P2;SDS_P1;SDS_P2;PMS_P1;PMS_P2;Temp;Humidity;BMP_temperature;BMP_pressure;BME280_temperature;BME280_humidity;BME280_pressure;Samples;Min_cycle;Max_cycle;Signal;HPM_P1;HPM_P2
2023/08/11 00:00:21;;;;;;;12.73;6.15;;;;;;;;;;5095455;28;20080;-66
2023/08/11 00:02:49;;;;;;;17.08;8.57;;;;;;;;;;5096504;28;20059;-65
2023/08/11 00:05:17;;;;;;;7.50;4.10;;;;;;;;;;5098044;28;20112;-63
2023/08/11 00:07:44;;;;;;;7.53;3.53;;;;;;;;;;5073855;28;20060;-66
2023/08/11 00:10:13;;;;;;;7.10;3.50;;;;;;;;;;5093896;28;20184;-66
2023/08/11 00:12:41;;;;;;;19.83;11.45;;;;;;;;;;5095229;27;20064;-66
2023/08/11 00:15:09;;;;;;;28.70;13.25;;;;;;;;;;5082144;28;20138;-65
2023/08/11 00:17:35;;;;;;;11.38;6.20;;;;;;;;;;5077903;28;20080;-65
2023/08/11 00:20:04;;;;;;;25.77;9.80;;;;;;;;;;5082886;28;20084;-66
2023/08/11 00:22:30;;;;;;;21.73;10.05;;;;;;;;;;5076411;28;20062;-66
2023/08/11 00:24:57;;;;;;;15.43;7.72;;;;;;;;;;5091071;28;20057;-64
2023/08/11 00:27:24;;;;;;;18.58;7.35;;;;;;;;;;5079409;28;20044;-65
2023/08/11 00:29:54;;;;;;;8.27;4.00;;;;;;;;;;5089436;28;20048;-63
2023/08/11 00:32:20;;;;;;;9.40;3.83;;;;;;;;;;5076597;28;20101;-64
2023/08/11 00:34:50;;;;;;;7.75;3.72;;;;;;;;;;5084465;28;20048;-65
2023/08/11 00:37:16;;;;;;;6.53;3.20;;;;;;;;;;5086570;28;20079;-64
2023/08/11 00:39:43;;;;;;;6.57;2.97;;;;;;;;;;5102918;27;20086;-63
2023/08/11 00:42:10;;;;;;;6.70;3.20;;;;;;;;;;5096426;28;20060;-65
2023/08/11 00:44:37;;;;;;;6.47;3.30;;;;;;;;;;5079909;27;20060;-65
2023/08/11 00:47:06;;;;;;;7.70;3.45;;;;;;;;;;5062796;28;20044;-65
2023/08/11 00:49:33;;;;;;;8.18;3.65;;;;;;;;;;5082312;28;20056;-64
2023/08/11 00:52:00;;;;;;;7.57;3.17;;;;;;;;;;5083087;28;20058;-64
2023/08/11 00:54:28;;;;;;;7.63;3.60;;;;;;;;;;5074162;28;20062;-63
2023/08/11 00:56:55;;;;;;;8.50;3.25;;;;;;;;;;5068836;28;20194;-65
2023/08/11 00:59:23;;;;;;;15.37;3.50;;;;;;;;;;5083150;28;20079;-63
2023/08/11 01:01:49;;;;;;;5.45;3.10;;;;;;;;;;5083042;28;20082;-63
2023/08/11 01:04:18;;;;;;;8.15;3.60;;;;;;;;;;5077785;28;20055;-64
2023/08/11 01:06:46;;;;;;;8.23;3.20;;;;;;;;;;5079248;28;20056;-64
2023/08/11 01:09:20;;;;;;;7.43;3.08;;;;;;;;;;5068298;28;20155;-62
2023/08/11 01:11:58;;;;;;;7.45;3.47;;;;;;;;;;5069403;28;20044;-64
2023/08/11 01:14:32;;;;;;;7.47;3.38;;;;;;;;;;5075681;28;20132;-63
2023/08/11 01:17:01;;;;;;;6.35;3.30;;;;;;;;;;5069547;28;20036;-64
2023/08/11 01:19:33;;;;;;;13.10;3.53;;;;;;;;;;5082939;28;20119;-63
2023/08/11 01:22:02;;;;;;;7.10;3.13;;;;;;;;;;5083186;28;20072;-64
2023/08/11 01:24:30;;;;;;;;;;;;;;;;;;5076042;28;20116;-65
2023/08/11 01:26:58;;;;;;;7.82;3.25;;;;;;;;;;5078825;28;19928;-66
2023/08/11 01:29:25;;;;;;;6.77;3.13;;;;;;;;;;5082334;28;20074;-63
2023/08/11 01:31:52;;;;;;;6.72;3.63;;;;;;;;;;5082874;28;20075;-63
2023/08/11 01:34:19;;;;;;;8.52;3.78;;;;;;;;;;5074255;28;20067;-64
2023/08/11 01:36:45;;;;;;;6.93;3.80;;;;;;;;;;5074230;28;20065;-64
2023/08/11 01:39:13;;;;;;;6.40;3.40;;;;;;;;;;5069318;28;20063;-65
2023/08/11 01:41:41;;;;;;;11.38;3.83;;;;;;;;;;5081336;28;20058;-63
2023/08/11 01:44:09;;;;;;;7.68;3.50;;;;;;;;;;5082189;28;20056;-63
2023/08/11 01:46:36;;;;;;;10.02;3.60;;;;;;;;;;5077446;28;20040;-64
2023/08/11 01:49:03;;;;;;;8.20;3.60;;;;;;;;;;5082314;28;20087;-63
2023/08/11 01:51:30;;;;;;;7.72;3.80;;;;;;;;;;5083648;28;20060;-66
2023/08/11 01:53:57;;;;;;;8.85;3.92;;;;;;;;;;5081784;28;20075;-63
2023/08/11 01:56:25;;;;;;;11.82;4.07;;;;;;;;;;5072855;28;20083;-64
2023/08/11 01:58:53;;;;;;;11.77;3.92;;;;;;;;;;5058227;28;20052;-65
2023/08/11 02:01:20;;;;;;;10.93;4.05;;;;;;;;;;5046162;28;20065;-64
2023/08/11 02:03:47;;;;;;;8.90;3.45;;;;;;;;;;4937232;28;20082;-63
2023/08/11 02:06:14;;;;;;;10.70;4.07;;;;;;;;;;4986960;28;20046;-63
2023/08/11 02:08:41;;;;;;;6.97;3.60;;;;;;;;;;5017051;28;20085;-64
2023/08/11 02:11:08;;;;;;;8.30;3.92;;;;;;;;;;5003224;28;20067;-64
2023/08/11 02:13:35;;;;;;;11.57;3.90;;;;;;;;;;5001876;28;20068;-64
2023/08/11 02:16:07;;;;;;;7.30;3.45;;;;;;;;;;4998380;28;20072;-65
2023/08/11 02:18:34;;;;;;;11.48;4.22;;;;;;;;;;5015167;27;20130;-65
2023/08/11 02:21:02;;;;;;;8.93;3.83;;;;;;;;;;5002422;28;20114;-65
2023/08/11 02:23:30;;;;;;;9.03;3.90;;;;;;;;;;5034243;27;20113;-64
2023/08/11 02:25:57;;;;;;;15.52;4.30;;;;;;;;;;4974420;28;20068;-63
2023/08/11 02:28:25;;;;;;;10.10;4.22;;;;;;;;;;4995435;28;20046;-62
2023/08/11 02:30:51;;;;;;;8.90;4.00;;;;;;;;;;5021451;28;20057;-65
2023/08/11 02:33:20;;;;;;;8.45;3.55;;;;;;;;;;5002615;28;20060;-63
2023/08/11 02:35:47;;;;;;;16.05;4.28;;;;;;;;;;4997891;28;20151;-65
2023/08/11 02:38:19;;;;;;;8.07;3.78;;;;;;;;;;5015382;28;20068;-65
2023/08/11 02:40:46;;;;;;;10.88;4.90;;;;;;;;;;5001098;28;20102;-64
2023/08/11 02:43:13;;;;;;;10.00;4.15;;;;;;;;;;5001568;28;20044;-64
2023/08/11 02:45:40;;;;;;;10.77;4.38;;;;;;;;;;5005597;28;20049;-67
2023/08/11 02:48:09;;;;;;;9.57;4.28;;;;;;;;;;4999051;28;20062;-63
2023/08/11 02:50:37;;;;;;;9.85;4.55;;;;;;;;;;4993617;28;20053;-65
2023/08/11 02:53:05;;;;;;;13.23;4.30;;;;;;;;;;5002556;28;20057;-65
2023/08/11 02:55:31;;;;;;;9.20;4.17;;;;;;;;;;4997879;28;20065;-64
2023/08/11 02:57:58;;;;;;;11.35;4.10;;;;;;;;;;5020382;28;20308;-64
2023/08/11 03:00:25;;;;;;;9.45;4.38;;;;;;;;;;5011244;28;20064;-64
2023/08/11 03:02:51;;;;;;;13.63;4.78;;;;;;;;;;4998663;28;20068;-63
2023/08/11 03:05:18;;;;;;;11.95;4.22;;;;;;;;;;4996550;28;20091;-63
2023/08/11 03:07:46;;;;;;;7.93;4.07;;;;;;;;;;4998790;28;20053;-62
2023/08/11 03:10:13;;;;;;;10.00;4.40;;;;;;;;;;4993607;28;20054;-64
2023/08/11 03:12:40;;;;;;;11.93;4.40;;;;;;;;;;4988457;28;20051;-64
2023/08/11 03:15:10;;;;;;;8.60;4.18;;;;;;;;;;4965694;28;20050;-65
2023/08/11 03:17:36;;;;;;;7.65;3.90;;;;;;;;;;4980526;28;20062;-64
2023/08/11 03:20:12;;;;;;;8.02;4.07;;;;;;;;;;4983424;28;20113;-65
2023/08/11 03:22:42;;;;;;;7.60;3.88;;;;;;;;;;4980379;28;20054;-63
2023/08/11 03:25:11;;;;;;;9.68;4.22;;;;;;;;;;4972917;28;20130;-62
2023/08/11 03:27:39;;;;;;;9.65;3.95;;;;;;;;;;4980314;28;20085;-65
2023/08/11 03:30:08;;;;;;;9.50;4.45;;;;;;;;;;4977587;28;20160;-65
2023/08/11 03:32:35;;;;;;;7.97;4.03;;;;;;;;;;4972889;28;20107;-63
2023/08/11 03:35:02;;;;;;;7.70;3.85;;;;;;;;;;4929888;28;20123;-62
2023/08/11 03:37:29;;;;;;;9.38;4.32;;;;;;;;;;4973563;28;20062;-62
2023/08/11 03:39:56;;;;;;;11.27;4.93;;;;;;;;;;4978744;28;20056;-63
2023/08/11 03:42:24;;;;;;;9.00;4.15;;;;;;;;;;4971869;28;20055;-62
2023/08/11 03:44:54;;;;;;;8.02;4.00;;;;;;;;;;4967232;28;20065;-64
2023/08/11 03:47:21;;;;;;;8.32;3.92;;;;;;;;;;4993087;28;20111;-64
2023/08/11 03:49:47;;;;;;;8.75;4.00;;;;;;;;;;4981393;28;20137;-64
2023/08/11 03:52:15;;;;;;;10.25;4.38;;;;;;;;;;4998153;28;20077;-64
2023/08/11 03:54:41;;;;;;;10.40;4.25;;;;;;;;;;4981191;28;20074;-66
2023/08/11 03:57:09;;;;;;;8.88;4.10;;;;;;;;;;5003151;28;20056;-64
2023/08/11 03:59:38;;;;;;;8.27;3.85;;;;;;;;;;5001540;28;20054;-66
2023/08/11 04:02:08;;;;;;;9.82;4.20;;;;;;;;;;4996833;28;20125;-66
2023/08/11 04:04:34;;;;;;;8.60;3.58;;;;;;;;;;4963768;27;20093;-66
2023/08/11 04:07:02;;;;;;;8.27;3.90;;;;;;;;;;5078249;28;20174;-66
2023/08/11 04:09:31;;;;;;;9.68;4.20;;;;;;;;;;4965760;28;20051;-64
2023/08/11 04:11:59;;;;;;;8.68;3.75;;;;;;;;;;4973280;28;20035;-63
2023/08/11 04:14:28;;;;;;;7.82;3.83;;;;;;;;;;4962709;28;20075;-65
2023/08/11 04:16:57;;;;;;;11.82;5.00;;;;;;;;;;4986465;28;20128;-62
2023/08/11 04:19:25;;;;;;;13.23;4.30;;;;;;;;;;4983228;28;20046;-66
2023/08/11 04:21:53;;;;;;;9.38;4.38;;;;;;;;;;4980717;28;20054;-66
2023/08/11 04:24:20;;;;;;;7.30;4.10;;;;;;;;;;4968166;28;20077;-66
2023/08/11 04:26:46;;;;;;;11.07;4.72;;;;;;;;;;4982694;28;20153;-65
2023/08/11 04:29:13;;;;;;;9.13;4.50;;;;;;;;;;4980857;28;20050;-66
2023/08/11 04:31:41;;;;;;;10.32;4.63;;;;;;;;;;4981790;28;20060;-62
2023/08/11 04:34:10;;;;;;;11.40;4.38;;;;;;;;;;4963918;28;20059;-63
2023/08/11 04:36:37;;;;;;;10.60;4.32;;;;;;;;;;4991470;28;20050;-65
2023/08/11 04:39:05;;;;;;;7.93;4.28;;;;;;;;;;4997941;28;20078;-65
2023/08/11 04:41:32;;;;;;;9.95;4.45;;;;;;;;;;4998636;28;20166;-65
2023/08/11 04:43:59;;;;;;;8.90;4.13;;;;;;;;;;4978913;27;20062;-65
2023/08/11 04:46:26;;;;;;;91.93;42.85;;;;;;;;;;4972786;27;20133;-64
2023/08/11 04:48:53;;;;;;;23.67;11.80;;;;;;;;;;4996960;28;20105;-65
2023/08/11 04:51:21;;;;;;;12.20;5.72;;;;;;;;;;5001598;27;20055;-62
2023/08/11 04:53:49;;;;;;;9.88;4.97;;;;;;;;;;5028971;28;20104;-64
2023/08/11 04:56:16;;;;;;;9.35;4.22;;;;;;;;;;5045364;28;20056;-65
2023/08/11 04:58:43;;;;;;;11.10;4.80;;;;;;;;;;5059493;28;20194;-66
2023/08/11 05:01:09;;;;;;;8.60;4.35;;;;;;;;;;5064944;28;20054;-66
2023/08/11 05:03:37;;;;;;;9.40;4.15;;;;;;;;;;5084189;27;20051;-65
2023/08/11 05:06:06;;;;;;;10.50;4.38;;;;;;;;;;5055895;28;20051;-64
2023/08/11 05:08:36;;;;;;;9.45;4.60;;;;;;;;;;5076427;27;20055;-62
2023/08/11 05:11:03;;;;;;;12.10;4.93;;;;;;;;;;5079147;28;20051;-63
2023/08/11 05:13:30;;;;;;;73.80;35.58;;;;;;;;;;5078162;28;20058;-66
2023/08/11 05:15:56;;;;;;;18.00;8.18;;;;;;;;;;4980820;28;20049;-65
2023/08/11 05:18:23;;;;;;;21.45;10.55;;;;;;;;;;5079363;28;20066;-66
2023/08/11 05:20:50;;;;;;;12.20;5.63;;;;;;;;;;5083188;28;20039;-66
2023/08/11 05:23:18;;;;;;;12.73;5.18;;;;;;;;;;5077557;28;20070;-64
2023/08/11 05:25:46;;;;;;;9.88;4.85;;;;;;;;;;5077502;27;20053;-62
2023/08/11 05:28:15;;;;;;;9.13;4.32;;;;;;;;;;5054614;28;20105;-63
2023/08/11 05:30:42;;;;;;;10.27;4.70;;;;;;;;;;5082319;27;20146;-64
2023/08/11 05:33:09;;;;;;;13.23;4.55;;;;;;;;;;5083652;28;20056;-65
2023/08/11 05:35:36;;;;;;;12.50;4.82;;;;;;;;;;5080295;28;20055;-62
2023/08/11 05:38:05;;;;;;;12.65;5.40;;;;;;;;;;5084505;28;20254;-63
2023/08/11 05:40:34;;;;;;;11.57;5.03;;;;;;;;;;5078553;28;20042;-62
2023/08/11 05:43:05;;;;;;;12.85;4.93;;;;;;;;;;5085296;28;20056;-65
2023/08/11 05:45:32;;;;;;;16.83;6.00;;;;;;;;;;5036765;28;20058;-64
2023/08/11 05:47:59;;;;;;;14.27;5.72;;;;;;;;;;4999233;28;20066;-66
2023/08/11 05:50:26;;;;;;;12.85;5.47;;;;;;;;;;4991711;28;20420;-62
2023/08/11 05:52:56;;;;;;;10.02;5.10;;;;;;;;;;5000751;28;20087;-64
2023/08/11 05:55:23;;;;;;;9.50;4.75;;;;;;;;;;4990564;28;20219;-63
2023/08/11 05:57:50;;;;;;;11.15;5.00;;;;;;;;;;4997008;28;20065;-65
2023/08/11 06:00:19;;;;;;;10.20;4.85;;;;;;;;;;4992021;27;20054;-65
2023/08/11 06:02:46;;;;;;;10.10;5.18;;;;;;;;;;4976122;28;20120;-63
2023/08/11 06:05:13;;;;;;;10.18;4.85;;;;;;;;;;5015513;27;20082;-65
2023/08/11 06:07:40;;;;;;;11.07;5.25;;;;;;;;;;5019204;28;20119;-62
2023/08/11 06:10:10;;;;;;;10.63;5.15;;;;;;;;;;4974217;28;20049;-63
2023/08/11 06:12:38;;;;;;;10.05;5.20;;;;;;;;;;4986765;28;20144;-64
2023/08/11 06:15:15;;;;;;;12.57;5.57;;;;;;;;;;4979012;28;20107;-63
2023/08/11 06:17:45;;;;;;;13.82;5.47;;;;;;;;;;4995535;28;20303;-63
2023/08/11 06:20:15;;;;;;;13.57;5.75;;;;;;;;;;4990718;28;20106;-64
2023/08/11 06:22:43;;;;;;;13.88;5.68;;;;;;;;;;4994711;28;20053;-66
2023/08/11 06:25:10;;;;;;;14.13;5.90;;;;;;;;;;4951142;28;20064;-64
2023/08/11 06:27:38;;;;;;;13.23;6.00;;;;;;;;;;5003689;28;20073;-62
2023/08/11 06:30:14;;;;;;;18.17;7.13;;;;;;;;;;4994760;28;20077;-67
2023/08/11 06:32:43;;;;;;;12.02;6.07;;;;;;;;;;4994789;28;20102;-62
2023/08/11 06:35:10;;;;;;;11.55;5.85;;;;;;;;;;4981846;28;20053;-65
2023/08/11 06:37:37;;;;;;;12.30;6.18;;;;;;;;;;4994657;28;20050;-63
2023/08/11 06:40:14;;;;;;;13.48;6.18;;;;;;;;;;4994186;28;20072;-65
2023/08/11 06:42:41;;;;;;;36.35;18.15;;;;;;;;;;4996546;28;20157;-62
2023/08/11 06:45:08;;;;;;;19.88;8.02;;;;;;;;;;4986442;28;20072;-65
2023/08/11 06:47:38;;;;;;;19.75;9.60;;;;;;;;;;5001443;28;20115;-63
2023/08/11 06:50:14;;;;;;;13.95;6.75;;;;;;;;;;5028210;28;20046;-62
2023/08/11 06:52:44;;;;;;;15.73;6.35;;;;;;;;;;4979122;28;20062;-63
2023/08/11 06:55:10;;;;;;;13.23;5.90;;;;;;;;;;4999916;28;20109;-65
2023/08/11 06:57:37;;;;;;;14.02;6.38;;;;;;;;;;4992104;28;20054;-63
2023/08/11 07:00:10;;;;;;;13.15;6.68;;;;;;;;;;4975405;28;20145;-66
2023/08/11 07:02:37;;;;;;;12.98;6.38;;;;;;;;;;4975484;28;20061;-62
2023/08/11 07:05:08;;;;;;;14.75;6.55;;;;;;;;;;4956020;28;20078;-64
2023/08/11 07:07:35;;;;;;;12.82;6.30;;;;;;;;;;5079367;28;20062;-62
2023/08/11 07:10:41;;;;;;;13.98;6.78;;;;;;;;;;4974998;28;20058;-65
2023/08/11 07:13:08;;;;;;;12.02;6.05;;;;;;;;;;5000969;28;20123;-65
2023/08/11 07:15:42;;;;;;;15.10;6.95;;;;;;;;;;4962929;28;20191;-65
2023/08/11 07:18:12;;;;;;;12.18;5.97;;;;;;;;;;4988955;28;20042;-63
2023/08/11 07:20:43;;;;;;;13.18;6.35;;;;;;;;;;5010322;28;20042;-67
2023/08/11 07:23:16;;;;;;;14.02;6.22;;;;;;;;;;4996384;28;20081;-63
2023/08/11 07:25:43;;;;;;;13.65;6.25;;;;;;;;;;4991712;28;20066;-66
2023/08/11 07:28:10;;;;;;;13.50;6.25;;;;;;;;;;4995949;28;20062;-62
2023/08/11 07:30:36;;;;;;;19.75;7.32;;;;;;;;;;4993511;28;20093;-64
2023/08/11 07:33:04;;;;;;;17.40;6.25;;;;;;;;;;4999042;28;20056;-63
2023/08/11 07:35:31;;;;;;;15.95;6.78;;;;;;;;;;4981004;28;20046;-65
2023/08/11 07:38:00;;;;;;;14.88;6.85;;;;;;;;;;5084594;28;20057;-66
2023/08/11 07:40:27;;;;;;;11.27;5.45;;;;;;;;;;4990916;28;20104;-68
2023/08/11 07:42:54;;;;;;;10.75;5.18;;;;;;;;;;4999104;28;20118;-66
2023/08/11 07:45:21;;;;;;;22.88;6.38;;;;;;;;;;4991959;28;20069;-65
2023/08/11 07:47:47;;;;;;;11.68;5.60;;;;;;;;;;4998716;28;20060;-65
2023/08/11 07:50:14;;;;;;;13.85;5.70;;;;;;;;;;4989663;28;20057;-64
2023/08/11 07:52:41;;;;;;;14.52;6.18;;;;;;;;;;4998087;28;20085;-66
2023/08/11 07:55:10;;;;;;;45.70;21.05;;;;;;;;;;4991121;28;20080;-68
2023/08/11 07:57:36;;;;;;;21.45;10.35;;;;;;;;;;4978122;28;20058;-67
2023/08/11 08:00:13;;;;;;;13.63;6.18;;;;;;;;;;5009724;28;20142;-66
2023/08/11 08:02:43;;;;;;;13.52;5.75;;;;;;;;;;4978242;28;20070;-65
2023/08/11 08:05:11;;;;;;;13.95;6.72;;;;;;;;;;4961099;28;20141;-66
2023/08/11 08:07:38;;;;;;;13.48;5.88;;;;;;;;;;4977826;28;20055;-66
2023/08/11 08:10:14;;;;;;;14.90;6.90;;;;;;;;;;4976508;28;20057;-65
2023/08/11 08:12:43;;;;;;;13.45;5.70;;;;;;;;;;4991023;28;20058;-65
2023/08/11 08:15:11;;;;;;;12.57;6.55;;;;;;;;;;4994378;28;20061;-65
2023/08/11 08:17:38;;;;;;;13.85;6.40;;;;;;;;;;4996702;28;20061;-64
2023/08/11 08:20:09;;;;;;;14.25;6.57;;;;;;;;;;4995438;28;20054;-65
2023/08/11 08:22:36;;;;;;;15.70;6.35;;;;;;;;;;5026673;28;20054;-63
2023/08/11 08:25:06;;;;;;;18.98;6.88;;;;;;;;;;4984825;28;20070;-66
2023/08/11 08:27:35;;;;;;;13.68;6.13;;;;;;;;;;4997283;28;20140;-65
2023/08/11 08:30:01;;;;;;;17.35;6.45;;;;;;;;;;4996398;28;20064;-63
2023/08/11 08:32:29;;;;;;;12.85;6.13;;;;;;;;;;4990502;28;20062;-64
2023/08/11 08:34:58;;;;;;;16.38;7.38;;;;;;;;;;4987366;28;20042;-66
2023/08/11 08:37:25;;;;;;;15.90;6.90;;;;;;;;;;5017813;28;20057;-65
2023/08/11 08:39:52;;;;;;;16.83;8.73;;;;;;;;;;5016164;28;20053;-62
2023/08/11 08:42:19;;;;;;;23.52;7.30;;;;;;;;;;5030804;28;20064;-63
2023/08/11 08:44:49;;;;;;;17.10;6.80;;;;;;;;;;4978114;28;20050;-65
2023/08/11 08:47:17;;;;;;;13.23;6.05;;;;;;;;;;5007732;28;20057;-64
2023/08/11 08:49:46;;;;;;;16.35;7.10;;;;;;;;;;4994654;28;20076;-66
2023/08/11 08:52:14;;;;;;;18.85;6.60;;;;;;;;;;4992264;28;20057;-63
2023/08/11 08:54:44;;;;;;;14.70;5.95;;;;;;;;;;4985642;28;20054;-64
2023/08/11 08:57:11;;;;;;;16.10;6.68;;;;;;;;;;4997079;28;20075;-66
2023/08/11 08:59:38;;;;;;;12.80;5.75;;;;;;;;;;4995202;28;20061;-64
2023/08/11 09:02:07;;;;;;;16.13;6.38;;;;;;;;;;5003421;28;20058;-66
2023/08/11 09:04:35;;;;;;;10.52;5.15;;;;;;;;;;4974700;27;20089;-65
2023/08/11 09:07:03;;;;;;;12.33;5.97;;;;;;;;;;5003247;28;20176;-65
2023/08/11 09:09:30;;;;;;;19.60;7.15;;;;;;;;;;4998970;28;20045;-64
2023/08/11 09:11:57;;;;;;;11.68;6.13;;;;;;;;;;4999419;28;20053;-67
2023/08/11 09:14:27;;;;;;;15.35;7.50;;;;;;;;;;4986557;28;20082;-67
2023/08/11 09:16:55;;;;;;;16.38;6.53;;;;;;;;;;5007625;28;20060;-64
2023/08/11 09:19:23;;;;;;;16.65;6.70;;;;;;;;;;5017251;28;20089;-65
2023/08/11 09:21:50;;;;;;;;;;;;;;;;;;4999590;28;20058;-65
2023/08/11 09:24:17;;;;;;;10.38;5.38;;;;;;;;;;5007015;28;19979;-65
2023/08/11 09:26:45;;;;;;;15.02;6.43;;;;;;;;;;4992628;28;20050;-66
2023/08/11 09:29:12;;;;;;;13.88;6.70;;;;;;;;;;4998692;28;20114;-66
2023/08/11 09:31:39;;;;;;;14.70;6.50;;;;;;;;;;5000681;28;20073;-65
2023/08/11 09:34:16;;;;;;;12.85;6.28;;;;;;;;;;5015787;27;20050;-65
2023/08/11 09:36:45;;;;;;;13.40;5.90;;;;;;;;;;5007613;27;20049;-65
2023/08/11 09:39:12;;;;;;;13.60;6.50;;;;;;;;;;4998933;28;20054;-64
2023/08/11 09:41:43;;;;;;;17.20;6.15;;;;;;;;;;4996513;28;20149;-64
2023/08/11 09:44:15;;;;;;;11.27;5.93;;;;;;;;;;4975047;28;20118;-64
2023/08/11 09:46:42;;;;;;;12.18;6.22;;;;;;;;;;5020668;27;20160;-66
2023/08/11 09:49:12;;;;;;;11.60;5.82;;;;;;;;;;4997989;28;20085;-64
2023/08/11 09:51:39;;;;;;;11.10;5.72;;;;;;;;;;5020127;27;20134;-63
2023/08/11 09:54:10;;;;;;;13.30;6.87;;;;;;;;;;4995671;28;20105;-64
2023/08/11 09:56:40;;;;;;;12.00;5.72;;;;;;;;;;5010007;28;20060;-66
2023/08/11 09:59:11;;;;;;;15.02;7.05;;;;;;;;;;4998922;28;20057;-63
2023/08/11 10:01:38;;;;;;;11.05;5.88;;;;;;;;;;5017181;28;20077;-65
2023/08/11 10:04:11;;;;;;;13.18;5.53;;;;;;;;;;5012925;28;20057;-66
2023/08/11 10:06:42;;;;;;;12.40;5.78;;;;;;;;;;4985830;28;20049;-64
2023/08/11 10:09:14;;;;;;;12.13;5.30;;;;;;;;;;4999149;28;20057;-65
2023/08/11 10:11:47;;;;;;;11.07;4.90;;;;;;;;;;5017128;28;20136;-65
2023/08/11 10:14:18;;;;;;;9.80;4.70;;;;;;;;;;4993833;28;20053;-64
2023/08/11 10:16:45;;;;;;;9.25;4.55;;;;;;;;;;4984383;28;20045;-65
2023/08/11 10:19:15;;;;;;;9.30;4.30;;;;;;;;;;4998084;28;20077;-65
2023/08/11 10:21:42;;;;;;;11.77;4.95;;;;;;;;;;4999287;28;20049;-64
2023/08/11 10:24:16;;;;;;;15.85;5.13;;;;;;;;;;5012780;27;20136;-66
2023/08/11 10:26:43;;;;;;;11.07;4.60;;;;;;;;;;4988547;27;20066;-65
2023/08/11 10:29:11;;;;;;;12.48;4.40;;;;;;;;;;4998098;28;20090;-65
2023/08/11 10:31:53;;;;;;;7.85;4.18;;;;;;;;;;4997946;28;20045;-65
2023/08/11 10:34:24;;;;;;;8.73;3.58;;;;;;;;;;4998505;28;20519;-65
2023/08/11 10:36:51;;;;;;;10.38;3.47;;;;;;;;;;5023576;27;20053;-64
2023/08/11 10:39:21;;;;;;;9.07;3.38;;;;;;;;;;4997409;28;20056;-66
2023/08/11 10:41:49;;;;;;;6.60;3.08;;;;;;;;;;5019110;28;20061;-64
2023/08/11 10:44:19;;;;;;;9.68;2.72;;;;;;;;;;4981943;27;20041;-65
2023/08/11 10:46:48;;;;;;;12.73;3.38;;;;;;;;;;5007055;28;20054;-65
2023/08/11 10:49:34;;;;;;;7.45;2.60;;;;;;;;;;4977326;28;20050;-65
2023/08/11 10:52:02;;;;;;;6.45;2.92;;;;;;;;;;4998048;28;20064;-65
2023/08/11 10:54:31;;;;;;;6.10;2.55;;;;;;;;;;5003850;27;20080;-65
2023/08/11 10:56:59;;;;;;;;;;;;;;;;;;5016240;28;20077;-64
2023/08/11 10:59:29;;;;;;;6.25;2.80;;;;;;;;;;4997607;28;19936;-65
2023/08/11 11:01:56;;;;;;;8.27;2.70;;;;;;;;;;5016027;28;20061;-67
2023/08/11 11:04:24;;;;;;;6.32;2.63;;;;;;;;;;5006350;28;20461;-67
2023/08/11 11:06:52;;;;;;;7.30;2.78;;;;;;;;;;4986999;28;20046;-67
2023/08/11 11:09:21;;;;;;;5.50;2.45;;;;;;;;;;4997455;28;20110;-66
2023/08/11 11:11:51;;;;;;;4.93;2.45;;;;;;;;;;4998870;28;20060;-67
2023/08/11 11:14:18;;;;;;;5.35;2.53;;;;;;;;;;4989059;28;20064;-65
2023/08/11 11:16:47;;;;;;;5.63;2.47;;;;;;;;;;4994224;28;20045;-65
2023/08/11 11:19:14;;;;;;;7.35;2.85;;;;;;;;;;4997686;28;20061;-65
2023/08/11 11:21:41;;;;;;;11.13;2.97;;;;;;;;;;4998215;28;20094;-65
2023/08/11 11:24:09;;;;;;;6.93;2.80;;;;;;;;;;4993947;28;20045;-66
2023/08/11 11:26:38;;;;;;;6.72;2.40;;;;;;;;;;5079289;28;20051;-65
2023/08/11 11:29:11;;;;;;;8.25;2.53;;;;;;;;;;5119456;28;20055;-65
2023/08/11 11:31:40;;;;;;;10.38;2.78;;;;;;;;;;5116931;28;20113;-66
2023/08/11 11:34:08;;;;;;;5.93;2.13;;;;;;;;;;5103524;28;20025;-66
2023/08/11 11:36:35;;;;;;;3.73;2.10;;;;;;;;;;4978336;28;20156;-65
2023/08/11 11:39:02;;;;;;;3.55;1.65;;;;;;;;;;4994497;28;20061;-65
2023/08/11 11:41:37;;;;;;;4.25;2.00;;;;;;;;;;4998840;28;20058;-66
2023/08/11 11:44:06;;;;;;;4.07;1.88;;;;;;;;;;5013855;28;20053;-65
2023/08/11 11:46:35;;;;;;;4.90;1.58;;;;;;;;;;5013284;28;20051;-66
2023/08/11 11:49:06;;;;;;;14.88;2.00;;;;;;;;;;4996918;28;20053;-66
2023/08/11 11:51:35;;;;;;;3.53;1.80;;;;;;;;;;4998044;28;20081;-66
2023/08/11 11:54:13;;;;;;;4.38;2.00;;;;;;;;;;4997302;28;20057;-66
2023/08/11 11:56:44;;;;;;;5.80;2.15;;;;;;;;;;4981308;28;20050;-66
2023/08/11 11:59:12;;;;;;;7.60;1.98;;;;;;;;;;4977959;28;20126;-66
2023/08/11 12:01:43;;;;;;;3.63;1.88;;;;;;;;;;5000472;28;20108;-66
2023/08/11 12:04:13;;;;;;;7.85;1.80;;;;;;;;;;4994715;28;20046;-66
2023/08/11 12:06:40;;;;;;;6.60;1.90;;;;;;;;;;4971756;27;20060;-67
2023/08/11 12:09:09;;;;;;;3.83;1.90;;;;;;;;;;4996647;28;20057;-66
2023/08/11 12:11:39;;;;;;;6.00;2.40;;;;;;;;;;5000784;28;20172;-66
2023/08/11 12:14:09;;;;;;;7.72;2.10;;;;;;;;;;4998472;28;20058;-66
2023/08/11 12:16:36;;;;;;;3.25;1.70;;;;;;;;;;5000804;27;20076;-66
2023/08/11 12:19:10;;;;;;;4.47;1.92;;;;;;;;;;5000821;28;20122;-66
2023/08/11 12:21:39;;;;;;;5.13;2.00;;;;;;;;;;5089143;28;20060;-66
2023/08/11 12:24:16;;;;;;;5.85;1.98;;;;;;;;;;5015682;28;20054;-67
2023/08/11 12:26:43;;;;;;;5.27;1.80;;;;;;;;;;4985657;27;20080;-66
2023/08/11 12:29:11;;;;;;;4.45;1.63;;;;;;;;;;5015813;28;20046;-66
2023/08/11 12:31:38;;;;;;;4.80;1.98;;;;;;;;;;5019307;27;20064;-66
2023/08/11 12:34:10;;;;;;;4.03;1.90;;;;;;;;;;4999493;28;20057;-66
2023/08/11 12:36:36;;;;;;;5.30;1.73;;;;;;;;;;4996738;27;20044;-67
2023/08/11 12:39:07;;;;;;;3.85;2.03;;;;;;;;;;5119107;27;20079;-67
2023/08/11 12:41:35;;;;;;;4.70;2.10;;;;;;;;;;5097795;27;20055;-66
2023/08/11 12:44:07;;;;;;;3.72;1.88;;;;;;;;;;4999112;28;20050;-67
2023/08/11 12:46:43;;;;;;;3.78;2.00;;;;;;;;;;4978239;28;20050;-67
2023/08/11 12:49:11;;;;;;;5.05;1.95;;;;;;;;;;5003665;28;20094;-67
2023/08/11 12:51:50;;;;;;;3.60;1.88;;;;;;;;;;5000258;28;20107;-67
2023/08/11 12:54:17;;;;;;;4.40;1.98;;;;;;;;;;4975101;28;20053;-67
2023/08/11 12:56:44;;;;;;;4.35;2.08;;;;;;;;;;4975896;27;20076;-67
2023/08/11 12:59:11;;;;;;;4.73;2.10;;;;;;;;;;5018578;28;20057;-68
2023/08/11 13:01:44;;;;;;;4.90;1.92;;;;;;;;;;5001385;28;20053;-68
2023/08/11 13:04:19;;;;;;;6.22;2.05;;;;;;;;;;5011758;27;20064;-67
2023/08/11 13:06:47;;;;;;;4.63;1.95;;;;;;;;;;5013038;28;20057;-69
2023/08/11 13:09:16;;;;;;;6.65;2.33;;;;;;;;;;5001483;28;20054;-67
2023/08/11 13:11:43;;;;;;;5.82;2.10;;;;;;;;;;4999670;28;20062;-67
2023/08/11 13:14:10;;;;;;;8.23;2.35;;;;;;;;;;4997434;28;20052;-68
2023/08/11 13:16:37;;;;;;;3.97;1.97;;;;;;;;;;4983235;28;20148;-69
2023/08/11 13:19:05;;;;;;;4.07;1.80;;;;;;;;;;5019660;27;20061;-68
2023/08/11 13:21:36;;;;;;;6.32;2.45;;;;;;;;;;5018728;28;20125;-69
2023/08/11 13:24:07;;;;;;;4.78;2.00;;;;;;;;;;5017829;27;20057;-70
2023/08/11 13:26:37;;;;;;;4.32;2.08;;;;;;;;;;4973814;27;20061;-69
2023/08/11 13:29:04;;;;;;;5.82;2.17;;;;;;;;;;5019261;28;20054;-70
2023/08/11 13:31:34;;;;;;;5.70;2.03;;;;;;;;;;5001046;28;20068;-68
2023/08/11 13:34:14;;;;;;;4.43;1.90;;;;;;;;;;5012263;27;20052;-68
2023/08/11 13:36:45;;;;;;;3.28;1.95;;;;;;;;;;4979723;28;20059;-69
2023/08/11 13:39:19;;;;;;;3.85;1.83;;;;;;;;;;4995106;28;20098;-67
2023/08/11 13:41:49;;;;;;;5.15;2.00;;;;;;;;;;5000576;28;20061;-70
2023/08/11 13:44:29;;;;;;;7.32;2.20;;;;;;;;;;4995055;28;20057;-71
2023/08/11 13:46:58;;;;;;;5.57;1.88;;;;;;;;;;4969690;28;20106;-71
2023/08/11 13:49:25;;;;;;;3.22;1.80;;;;;;;;;;4999033;28;20071;-68
2023/08/11 13:51:53;;;;;;;4.65;2.05;;;;;;;;;;4999738;28;20057;-71
2023/08/11 13:54:20;;;;;;;6.13;2.10;;;;;;;;;;4992042;28;20079;-71
2023/08/11 13:56:50;;;;;;;4.95;1.85;;;;;;;;;;4969792;28;20140;-72
2023/08/11 13:59:16;;;;;;;4.32;2.10;;;;;;;;;;5021146;27;20052;-68
2023/08/11 14:01:45;;;;;;;6.70;1.98;;;;;;;;;;4998173;28;20057;-70
2023/08/11 14:04:12;;;;;;;5.88;2.22;;;;;;;;;;5014013;28;20061;-68
2023/08/11 14:06:39;;;;;;;6.32;1.98;;;;;;;;;;4982302;28;20057;-70
2023/08/11 14:09:07;;;;;;;10.63;2.28;;;;;;;;;;5000345;28;20057;-72
2023/08/11 14:11:38;;;;;;;8.05;2.30;;;;;;;;;;5001028;28;20063;-68
2023/08/11 14:14:10;;;;;;;5.07;2.38;;;;;;;;;;4998365;28;20049;-70
2023/08/11 14:16:37;;;;;;;4.65;1.95;;;;;;;;;;4965715;28;20053;-71
2023/08/11 14:19:05;;;;;;;9.48;2.08;;;;;;;;;;5017324;28;20060;-68
2023/08/11 14:21:34;;;;;;;4.45;2.00;;;;;;;;;;5000312;28;20060;-70
2023/08/11 14:24:01;;;;;;;6.25;2.20;;;;;;;;;;5000083;28;20045;-68
2023/08/11 14:26:32;;;;;;;8.45;2.05;;;;;;;;;;4992456;28;20053;-69
2023/08/11 14:29:00;;;;;;;7.63;2.20;;;;;;;;;;5001234;28;20084;-71
2023/08/11 14:31:27;;;;;;;4.40;1.85;;;;;;;;;;5018697;27;20072;-69
2023/08/11 14:33:56;;;;;;;4.78;2.17;;;;;;;;;;5029784;27;20156;-71
2023/08/11 14:36:23;;;;;;;5.50;2.03;;;;;;;;;;4956742;28;20057;-70
2023/08/11 14:38:52;;;;;;;4.20;1.95;;;;;;;;;;4999589;28;20064;-72
2023/08/11 14:41:19;;;;;;;12.52;2.47;;;;;;;;;;4999040;28;20136;-68
2023/08/11 14:43:47;;;;;;;6.45;3.72;;;;;;;;;;4999748;28;20164;-69
2023/08/11 14:46:14;;;;;;;7.93;3.85;;;;;;;;;;4993182;27;20057;-68